Skye — WDG4178 — position and weather

sailwx.info

Track history (hours):
 
Tides and Currents Weather Stations Pressure Air Temp Water Temp Dewpoint Dewpoint Depression Visibility Wind Speed Wind Dir Waves Ship Positions

Skye

Owner: Worthington, Ralph, New York, NY. More information available from US FCC via Universal Licensing System and Coast Guard Vessel Documentation Center.

Last reported at 2015-May-21 21:32 UTC. Time now 2015-May-22 16:11 UTC.
Position N 38°32' W 028°37'.

Length 13 m.

Type: Sailing vessel. MMSI: 367533820.

Date/timePositionNaut miles runAvg speedWind from/ knotsBaromVisibWave heightAir tempDewpointWater temp
2015-May-21 21:32N 38°32' W 028°37'0 0.0
2015-May-21 20:32N 38°32' W 028°38'0 0.0
2015-May-21 19:32N 38°32' W 028°37'0 0.0
2015-May-21 18:32N 38°32' W 028°37'0 0.0
2015-May-21 17:32N 38°32' W 028°37'0 0.0
2015-May-21 16:32N 38°32' W 028°38'0 0.0
2015-May-21 15:32N 38°32' W 028°37'0 0.1
2015-May-21 14:30N 38°32' W 028°38'2 1.6
2015-May-21 13:33N 38°30' W 028°38'7 7.4
2015-May-21 12:33N 38°29' W 028°48'7 7.1
2015-May-21 11:33N 38°28' W 028°57'7 7.1
2015-May-21 10:33N 38°26' W 029°05'7 6.7
2015-May-21 09:33N 38°24' W 029°13'37 6.9
2015-May-21 04:15N 38°14' W 029°58'5 6.6
2015-May-21 03:33N 38°13' W 030°04'7 6.9
2015-May-21 02:33N 38°11' W 030°12'  
Track history (hours):
 
Tides and Currents Weather Stations Pressure Air Temp Water Temp Dewpoint Dewpoint Depression Visibility Wind Speed Wind Dir Waves Ship Positions

Skye

Owner: Worthington, Ralph, New York, NY. More information available from US FCC via Universal Licensing System and Coast Guard Vessel Documentation Center.

Last reported at 2015-May-21 21:32 UTC. Time now 2015-May-22 16:11 UTC.
Position N 38°32' W 028°37'.

Length 13 m.

Type: Sailing vessel. MMSI: 367533820.

Date/timePositionNaut miles runAvg speedWind from/ knotsBaromVisibWave heightAir tempDewpointWater temp
2015-May-21 21:32N 38°32' W 028°37'0 0.0
2015-May-21 20:32N 38°32' W 028°38'0 0.0
2015-May-21 19:32N 38°32' W 028°37'0 0.0
2015-May-21 18:32N 38°32' W 028°37'0 0.0
2015-May-21 17:32N 38°32' W 028°37'0 0.0
2015-May-21 16:32N 38°32' W 028°38'0 0.0
2015-May-21 15:32N 38°32' W 028°37'0 0.1
2015-May-21 14:30N 38°32' W 028°38'2 1.6
2015-May-21 13:33N 38°30' W 028°38'7 7.4
2015-May-21 12:33N 38°29' W 028°48'7 7.1
2015-May-21 11:33N 38°28' W 028°57'7 7.1
2015-May-21 10:33N 38°26' W 029°05'7 6.7
2015-May-21 09:33N 38°24' W 029°13'37 6.9
2015-May-21 04:15N 38°14' W 029°58'5 6.6
2015-May-21 03:33N 38°13' W 030°04'7 6.9
2015-May-21 02:33N 38°11' W 030°12'  

Dump ship's entire track history